Arlington, OH

8:18 PM EDT on September 03, 2015 (GMT -0400)
Findlay | | Change Station
CLOSE
Current Station
Airport
Location: Findlay,
Elevation: 810 ft
Nearby Weather Stations

Elev 810 ft 41.01 °N, 83.67 °W | Updated 25 minutes ago

Clear
Clear
82 °F
Feels Like 87 °F
N
5
Wind Variable Wind from SSW

Today
High -- | Low -- °F
--% Chance of Precip.
Yesterday
High -- | Low -- °F
Precip. -- in
7:03 AM 8:04 PM
Waning Gibbous, 65% visible
Pressure 29.88 in
Visibility 10.0 miles
Clouds Mostly Cloudy 9000 ft
Heat Index 87 °F
Dew Point 72 °F
Humidity 71%
Rainfall 0.00 in
Snow Depth Not available.
UV 0 out of 12
Pollen 10.00 out of 12
Air Quality Not available.
Flu Activity Not available.
METAR KFDY 032353Z AUTO 21004KT 10SM BKN090 28/22 A2991 RMK AO2 SLP117 T02780222 10328 20278 58000
Pressure 29.88 in
Visibility 10.0 miles
Clouds Mostly Cloudy 9000 ft
Heat Index 87 °F
Dew Point 72 °F
Humidity 71%
Rainfall 0.00 in
Snow Depth Not available.
UV 0 out of 12
Pollen 10.00 out of 12
Air Quality Not available.
Flu Activity Not available.
METAR KFDY 032353Z AUTO 21004KT 10SM BKN090 28/22 A2991 RMK AO2 SLP117 T02780222 10328 20278 58000

10-Day Weather Forecast

×

Almanac

Astronomy

Sep. 03, 2015 Rise Set
Actual Time
Civil Twilight
Nautical Twilight
Astronomical Twilight
Moon
Length of Visible Light
Length of Day
Tomorrow will be .
, % of the Moon is Illuminated

Today's Extremes

State Highs State Lows

Community

WunderPhotos

Upload Photos

1,852,068 photos uploaded!

WunderBlogs® & News

Nearby

Air Quality

  Air Quality AQ Index Pollutant
Not available.

Snow Depth

Station Depth Elevation

Earthquake Activity

City Distance Mag. Time & Date
Minimum magnitude displayed is 2.5.

Coastal Water Temperatures

Place Temperature

Stations

Nearby Weather Stations

Station Location Temp. Windchill Dew Point Humidity Wind Precip. Elev Updated Type